Time;durP1;ratioP1;P1;durP2;ratioP2;P2;SDS_P1;SDS_P2;PMS_P1;PMS_P2;Temp;Humidity;BMP_temperature;BMP_pressure;BME280_temperature;BME280_humidity;BME280_pressure;Samples;Min_cycle;Max_cycle;Signal;HPM_P1;HPM_P2
2022/11/20 00:00:54;;;;;;;;;;;8.00;95.80;;;;;;5066363;28;20015;-64
2022/11/20 00:03:19;;;;;;;;;;;8.00;96.00;;;;;;5070877;28;19920;-64
2022/11/20 00:05:45;;;;;;;;;;;8.10;95.90;;;;;;5060695;28;19952;-65
2022/11/20 00:08:11;;;;;;;;;;;8.10;95.70;;;;;;5053043;28;20385;-65
2022/11/20 00:10:37;;;;;;;;;;;8.10;95.70;;;;;;5053457;28;19913;-65
2022/11/20 00:13:03;;;;;;;;;;;7.90;95.90;;;;;;5053361;28;19958;-65
2022/11/20 00:15:28;;;;;;;;;;;7.90;96.00;;;;;;5050908;28;19913;-65
2022/11/20 00:17:54;;;;;;;;;;;7.90;96.00;;;;;;5052075;28;19916;-65
2022/11/20 00:20:19;;;;;;;;;;;7.80;95.80;;;;;;5053063;28;19920;-65
2022/11/20 00:22:45;;;;;;;;;;;7.70;95.70;;;;;;5059107;28;19913;-64
2022/11/20 00:25:11;;;;;;;;;;;7.60;95.80;;;;;;5071863;28;19974;-65
2022/11/20 00:27:36;;;;;;;;;;;7.50;96.10;;;;;;5058519;28;19919;-65
2022/11/20 00:30:02;;;;;;;;;;;7.50;96.60;;;;;;5051897;28;20404;-64
2022/11/20 00:32:29;;;;;;;;;;;7.50;96.70;;;;;;5056566;28;19919;-65
2022/11/20 00:34:54;;;;;;;;;;;7.50;96.80;;;;;;5058399;28;19913;-64
2022/11/20 00:37:20;;;;;;;;;;;7.50;96.60;;;;;;5051680;28;19924;-65
2022/11/20 00:39:45;;;;;;;;;;;7.50;96.50;;;;;;5051779;28;20007;-64
2022/11/20 00:42:11;;;;;;;;;;;7.50;96.90;;;;;;5052984;28;19924;-65
2022/11/20 00:44:36;;;;;;;;;;;7.50;96.80;;;;;;5052454;28;19920;-64
2022/11/20 00:47:02;;;;;;;;;;;7.40;96.70;;;;;;5055946;28;19954;-64
2022/11/20 00:49:27;;;;;;;;;;;7.40;97.00;;;;;;5055872;28;19913;-65
2022/11/20 00:51:53;;;;;;;;;;;7.40;96.90;;;;;;5055921;28;20255;-64
2022/11/20 00:54:18;;;;;;;;;;;7.50;96.80;;;;;;5070606;28;19990;-64
2022/11/20 00:56:44;;;;;;;;;;;7.50;96.80;;;;;;5055487;28;19991;-65
2022/11/20 00:59:10;;;;;;;;;;;7.50;96.90;;;;;;5066099;28;19920;-65
2022/11/20 01:01:37;;;;;;;;;;;7.50;96.70;;;;;;5074166;28;19916;-65
2022/11/20 01:04:02;;;;;;;;;;;7.60;96.70;;;;;;5062282;28;19956;-64
2022/11/20 01:06:29;;;;;;;;;;;7.60;96.50;;;;;;5055510;28;20009;-64
2022/11/20 01:08:56;;;;;;;;;;;7.70;96.40;;;;;;5055971;28;19913;-64
2022/11/20 01:11:24;;;;;;;;;;;7.70;96.20;;;;;;5072646;28;20301;-65
2022/11/20 01:13:50;;;;;;;;;;;7.70;96.00;;;;;;5058347;28;19944;-64
2022/11/20 01:16:16;;;;;;;;;;;7.70;95.90;;;;;;5054102;28;20003;-64
2022/11/20 01:18:43;;;;;;;;;;;7.70;95.80;;;;;;5055289;28;20027;-63
2022/11/20 01:21:14;;;;;;;;;;;7.70;95.70;;;;;;5055781;28;19924;-64
2022/11/20 01:23:41;;;;;;;;;;;7.60;95.80;;;;;;5056207;28;19944;-64
2022/11/20 01:26:08;;;;;;;;;;;7.60;95.80;;;;;;5055075;28;19913;-64
2022/11/20 01:28:34;;;;;;;;;;;7.60;95.60;;;;;;5055151;28;19909;-64
2022/11/20 01:31:00;;;;;;;;;;;7.60;95.60;;;;;;5065063;28;19919;-64
2022/11/20 01:33:25;;;;;;;;;;;7.50;95.50;;;;;;5072568;28;19951;-64
2022/11/20 01:35:51;;;;;;;;;;;7.40;95.80;;;;;;5064796;28;19921;-64
2022/11/20 01:38:17;;;;;;;;;;;7.40;95.80;;;;;;5054882;28;19917;-64
2022/11/20 01:40:43;;;;;;;;;;;7.40;95.90;;;;;;5054708;28;19919;-65
2022/11/20 01:43:21;;;;;;;;;;;7.40;95.90;;;;;;5063018;28;19913;-64
2022/11/20 01:45:47;;;;;;;;;;;7.40;95.70;;;;;;5054337;28;20028;-65
2022/11/20 01:48:13;;;;;;;;;;;7.40;95.60;;;;;;5054212;28;20563;-65
2022/11/20 01:50:40;;;;;;;;;;;7.40;95.70;;;;;;5054848;28;20374;-64
2022/11/20 01:53:07;;;;;;;;;;;7.40;95.60;;;;;;5055840;28;19935;-64
2022/11/20 01:55:34;;;;;;;;;;;7.40;95.70;;;;;;5055299;28;20285;-64
2022/11/20 01:58:01;;;;;;;;;;;7.40;95.60;;;;;;5053318;28;19917;-63
2022/11/20 02:00:26;;;;;;;;;;;7.40;95.50;;;;;;5054466;28;19919;-65
2022/11/20 02:02:54;;;;;;;;;;;7.40;95.50;;;;;;5055647;28;20262;-64
2022/11/20 02:05:38;;;;;;;;;;;7.40;95.40;;;;;;5040460;28;19912;-65
2022/11/20 02:08:05;;;;;;;;;;;7.40;95.40;;;;;;5072483;28;19920;-64
2022/11/20 02:10:30;;;;;;;;;;;7.40;95.40;;;;;;5074110;28;20007;-64
2022/11/20 02:15:40;;;;;;;;;;;7.30;95.30;;;;;;5067535;28;19959;-64
2022/11/20 02:18:06;;;;;;;;;;;7.30;95.30;;;;;;5053952;28;19916;-64
2022/11/20 02:20:32;;;;;;;;;;;7.30;95.20;;;;;;5054226;28;20003;-64
2022/11/20 02:23:00;;;;;;;;;;;7.20;95.20;;;;;;5059388;28;20028;-64
2022/11/20 02:25:27;;;;;;;;;;;7.30;95.20;;;;;;5067665;28;20011;-64
2022/11/20 02:27:53;;;;;;;;;;;7.20;95.10;;;;;;5052872;28;20344;-64
2022/11/20 02:30:18;;;;;;;;;;;7.20;95.10;;;;;;5052738;28;19956;-64
2022/11/20 02:32:44;;;;;;;;;;;7.20;95.10;;;;;;5068890;28;19957;-64
2022/11/20 02:35:29;;;;;;;;;;;7.20;95.20;;;;;;5073629;28;19917;-64
2022/11/20 02:37:57;;;;;;;;;;;7.20;95.10;;;;;;5073387;28;20015;-64
2022/11/20 02:40:23;;;;;;;;;;;7.20;95.00;;;;;;5071803;28;20297;-64
2022/11/20 02:42:52;;;;;;;;;;;7.10;94.80;;;;;;5058208;28;20042;-64
2022/11/20 02:45:18;;;;;;;;;;;7.10;94.90;;;;;;5053659;28;20283;-64
2022/11/20 02:47:43;;;;;;;;;;;7.10;94.80;;;;;;5069267;28;20084;-64
2022/11/20 02:50:09;;;;;;;;;;;7.00;95.00;;;;;;5073280;28;20369;-64
2022/11/20 02:52:34;;;;;;;;;;;7.00;95.20;;;;;;5060166;28;20401;-64
2022/11/20 02:55:00;;;;;;;;;;;7.00;95.20;;;;;;5053573;28;20240;-64
2022/11/20 02:57:25;;;;;;;;;;;7.00;95.40;;;;;;5066772;28;19924;-63
2022/11/20 02:59:51;;;;;;;;;;;7.00;95.40;;;;;;5072700;28;19920;-63
2022/11/20 03:02:16;;;;;;;;;;;7.00;95.60;;;;;;5070114;28;20004;-64
2022/11/20 03:04:42;;;;;;;;;;;7.10;95.60;;;;;;5056396;28;19948;-64
2022/11/20 03:07:08;;;;;;;;;;;7.10;95.60;;;;;;5067449;28;20420;-64
2022/11/20 03:09:33;;;;;;;;;;;7.10;95.50;;;;;;5057433;28;19932;-64
2022/11/20 03:11:59;;;;;;;;;;;7.10;95.30;;;;;;5066497;28;19912;-63
2022/11/20 03:14:24;;;;;;;;;;;7.00;95.30;;;;;;5061581;28;19913;-64
2022/11/20 03:16:50;;;;;;;;;;;6.90;95.20;;;;;;5053009;28;19944;-64
2022/11/20 03:19:15;;;;;;;;;;;6.90;95.30;;;;;;5054215;28;19925;-64
2022/11/20 03:21:41;;;;;;;;;;;6.80;95.30;;;;;;5063401;28;19916;-64
2022/11/20 03:24:07;;;;;;;;;;;6.70;95.40;;;;;;5072646;28;19908;-63
2022/11/20 03:26:32;;;;;;;;;;;6.70;95.40;;;;;;5072898;28;19908;-64
2022/11/20 03:28:59;;;;;;;;;;;6.70;95.60;;;;;;5065816;28;19920;-63
2022/11/20 03:31:30;;;;;;;;;;;6.60;95.50;;;;;;5054001;28;19914;-64
2022/11/20 03:33:56;;;;;;;;;;;6.60;95.40;;;;;;5052855;28;19913;-63
2022/11/20 03:36:21;;;;;;;;;;;6.50;95.30;;;;;;5053511;28;19920;-64
2022/11/20 03:38:48;;;;;;;;;;;6.50;95.20;;;;;;5053657;28;19917;-64
2022/11/20 03:41:15;;;;;;;;;;;6.40;95.40;;;;;;5060588;28;19994;-64
2022/11/20 03:43:41;;;;;;;;;;;6.40;95.30;;;;;;5072349;28;20272;-63
2022/11/20 03:46:06;;;;;;;;;;;6.30;95.10;;;;;;5072237;28;19913;-64
2022/11/20 03:48:32;;;;;;;;;;;6.30;95.10;;;;;;5071555;28;19913;-64
2022/11/20 03:51:11;;;;;;;;;;;6.20;95.00;;;;;;5062599;28;19959;-64
2022/11/20 03:53:37;;;;;;;;;;;6.20;94.90;;;;;;5051716;28;20352;-64
2022/11/20 03:56:03;;;;;;;;;;;6.10;95.20;;;;;;5052515;28;20008;-61
2022/11/20 03:58:28;;;;;;;;;;;6.10;95.20;;;;;;5052246;28;20365;-63
2022/11/20 04:00:54;;;;;;;;;;;6.10;95.20;;;;;;5052927;28;19919;-64
2022/11/20 04:03:20;;;;;;;;;;;6.10;95.00;;;;;;5051046;28;20415;-64
2022/11/20 04:05:45;;;;;;;;;;;6.00;95.10;;;;;;5065148;28;20280;-64
2022/11/20 04:08:11;;;;;;;;;;;5.90;95.30;;;;;;5056404;28;20296;-64
2022/11/20 04:10:37;;;;;;;;;;;5.90;95.30;;;;;;5063606;28;19912;-64
2022/11/20 04:13:03;;;;;;;;;;;5.90;95.40;;;;;;5053395;28;19916;-63
2022/11/20 04:15:28;;;;;;;;;;;5.80;95.50;;;;;;5053309;28;20012;-64
2022/11/20 04:17:54;;;;;;;;;;;5.80;95.60;;;;;;5063350;28;19916;-63
2022/11/20 04:20:19;;;;;;;;;;;5.80;95.50;;;;;;5064902;28;19916;-64
2022/11/20 04:22:45;;;;;;;;;;;5.80;95.50;;;;;;5052143;28;19922;-63
2022/11/20 04:25:10;;;;;;;;;;;5.80;95.50;;;;;;5051880;28;20063;-64
2022/11/20 04:27:36;;;;;;;;;;;5.80;95.60;;;;;;5051683;28;20289;-63
2022/11/20 04:30:01;;;;;;;;;;;5.80;95.50;;;;;;5051257;28;19916;-64
2022/11/20 04:32:27;;;;;;;;;;;5.80;95.50;;;;;;5051922;28;20349;-64
2022/11/20 04:34:53;;;;;;;;;;;5.90;95.30;;;;;;5051817;28;19916;-63
2022/11/20 04:37:18;;;;;;;;;;;5.80;95.20;;;;;;5071283;28;19917;-63
2022/11/20 04:39:44;;;;;;;;;;;5.80;95.20;;;;;;5060335;28;19919;-63
2022/11/20 04:42:28;;;;;;;;;;;5.80;95.30;;;;;;5053699;28;19912;-63
2022/11/20 04:44:53;;;;;;;;;;;5.80;95.20;;;;;;5050189;28;19913;-63
2022/11/20 04:47:19;;;;;;;;;;;5.70;94.40;;;;;;5051762;28;20456;-63
2022/11/20 04:49:44;;;;;;;;;;;5.50;94.50;;;;;;5060583;28;19949;-63
2022/11/20 04:52:10;;;;;;;;;;;5.30;94.80;;;;;;5057604;28;19951;-64
2022/11/20 04:54:36;;;;;;;;;;;5.10;95.30;;;;;;5051882;28;19959;-63
2022/11/20 04:57:01;;;;;;;;;;;5.00;95.80;;;;;;5064200;28;19946;-63
2022/11/20 04:59:27;;;;;;;;;;;5.00;96.10;;;;;;5071417;28;20003;-63
2022/11/20 05:01:52;;;;;;;;;;;5.20;96.10;;;;;;5060044;28;19913;-63
2022/11/20 05:04:18;;;;;;;;;;;5.30;96.00;;;;;;5053425;28;19917;-63
2022/11/20 05:06:45;;;;;;;;;;;5.30;95.20;;;;;;5071485;28;19966;-64
2022/11/20 05:09:11;;;;;;;;;;;5.20;95.20;;;;;;5070018;28;19913;-63
2022/11/20 05:11:36;;;;;;;;;;;5.20;95.50;;;;;;5052644;28;19913;-63
2022/11/20 05:14:02;;;;;;;;;;;5.20;95.50;;;;;;5060159;28;19912;-62
2022/11/20 05:16:27;;;;;;;;;;;5.20;95.60;;;;;;5071332;28;20273;-63
2022/11/20 05:18:54;;;;;;;;;;;5.30;95.60;;;;;;5069603;28;19924;-63
2022/11/20 05:21:19;;;;;;;;;;;5.40;95.40;;;;;;5052823;28;20006;-63
2022/11/20 05:23:45;;;;;;;;;;;5.30;94.70;;;;;;5051655;28;20377;-63
2022/11/20 05:26:15;;;;;;;;;;;5.20;94.50;;;;;;5052485;28;19935;-63
2022/11/20 05:28:41;;;;;;;;;;;4.90;94.70;;;;;;5052610;28;20013;-64
2022/11/20 05:31:11;;;;;;;;;;;4.80;95.00;;;;;;5052579;28;19960;-63
2022/11/20 05:33:39;;;;;;;;;;;4.70;95.20;;;;;;5056042;28;19920;-63
2022/11/20 05:36:04;;;;;;;;;;;4.60;95.50;;;;;;5063283;28;19917;-63
2022/11/20 05:38:30;;;;;;;;;;;4.60;95.80;;;;;;5053691;28;20424;-63
2022/11/20 05:41:02;;;;;;;;;;;4.60;95.60;;;;;;5056149;28;20377;-63
2022/11/20 05:43:27;;;;;;;;;;;4.50;95.60;;;;;;5059469;28;19919;-63
2022/11/20 05:45:54;;;;;;;;;;;4.50;95.80;;;;;;5054955;28;19916;-63
2022/11/20 05:48:19;;;;;;;;;;;4.60;95.90;;;;;;5054955;28;19919;-63
2022/11/20 05:50:45;;;;;;;;;;;4.60;96.00;;;;;;5073000;28;19913;-63
2022/11/20 05:53:10;;;;;;;;;;;4.60;95.90;;;;;;5072897;28;20550;-62
2022/11/20 05:55:36;;;;;;;;;;;4.70;96.00;;;;;;5054917;28;20369;-63
2022/11/20 05:58:01;;;;;;;;;;;4.80;95.90;;;;;;5055056;28;20369;-64
2022/11/20 06:00:27;;;;;;;;;;;4.90;95.70;;;;;;5055957;28;19917;-61
2022/11/20 06:02:52;;;;;;;;;;;4.90;95.60;;;;;;5066918;28;20609;-63
2022/11/20 06:05:18;;;;;;;;;;;5.00;95.40;;;;;;5062326;28;20358;-63
2022/11/20 06:07:44;;;;;;;;;;;5.10;95.40;;;;;;5060537;28;20014;-63
2022/11/20 06:10:09;;;;;;;;;;;5.10;95.10;;;;;;5064865;28;19947;-63
2022/11/20 06:12:35;;;;;;;;;;;5.10;95.00;;;;;;5060458;28;19912;-64
2022/11/20 06:15:00;;;;;;;;;;;5.10;95.00;;;;;;5059949;28;19920;-64
2022/11/20 06:17:26;;;;;;;;;;;5.00;94.70;;;;;;5054253;28;19924;-63
2022/11/20 06:19:51;;;;;;;;;;;4.80;95.20;;;;;;5065940;28;19923;-64
2022/11/20 06:22:17;;;;;;;;;;;4.80;95.50;;;;;;5072512;28;20355;-63
2022/11/20 06:24:43;;;;;;;;;;;4.90;95.60;;;;;;5073744;28;19919;-63
2022/11/20 06:27:08;;;;;;;;;;;5.00;95.70;;;;;;5073987;28;19919;-63
2022/11/20 06:29:34;;;;;;;;;;;5.00;95.60;;;;;;5062974;28;20381;-63
2022/11/20 06:32:00;;;;;;;;;;;5.00;95.60;;;;;;5055430;28;20328;-63
2022/11/20 06:34:25;;;;;;;;;;;5.10;95.70;;;;;;5062723;28;19912;-63
2022/11/20 06:36:51;;;;;;;;;;;5.00;95.60;;;;;;5057187;28;19923;-63
2022/11/20 06:39:16;;;;;;;;;;;5.00;95.80;;;;;;5053911;28;19921;-63
2022/11/20 06:41:42;;;;;;;;;;;4.90;96.00;;;;;;5053899;28;20004;-64
2022/11/20 06:44:07;;;;;;;;;;;4.90;96.00;;;;;;5056825;28;20324;-63
2022/11/20 06:46:33;;;;;;;;;;;5.00;96.00;;;;;;5073582;28;20449;-64
2022/11/20 06:48:58;;;;;;;;;;;5.00;95.80;;;;;;5067981;28;19913;-63
2022/11/20 06:51:24;;;;;;;;;;;4.90;95.90;;;;;;5062258;28;19913;-63
2022/11/20 06:53:50;;;;;;;;;;;4.90;96.20;;;;;;5054386;28;20374;-63
2022/11/20 06:56:15;;;;;;;;;;;4.90;96.10;;;;;;5052231;28;19912;-63
2022/11/20 06:58:41;;;;;;;;;;;5.00;96.10;;;;;;5059450;28;19924;-64
2022/11/20 07:01:08;;;;;;;;;;;4.90;95.90;;;;;;5058665;28;20380;-64
2022/11/20 07:03:34;;;;;;;;;;;4.80;95.90;;;;;;5055322;28;19954;-63
2022/11/20 07:06:00;;;;;;;;;;;4.70;96.10;;;;;;5073438;28;19908;-63
2022/11/20 07:08:25;;;;;;;;;;;4.70;96.40;;;;;;5073401;28;20375;-63
2022/11/20 07:10:51;;;;;;;;;;;4.70;96.50;;;;;;5059238;28;20297;-63
2022/11/20 07:13:17;;;;;;;;;;;4.70;96.50;;;;;;5059750;28;19913;-64
2022/11/20 07:15:42;;;;;;;;;;;4.70;96.60;;;;;;5054381;28;19996;-64
2022/11/20 07:18:08;;;;;;;;;;;4.70;96.60;;;;;;5053107;28;19917;-63
2022/11/20 07:20:33;;;;;;;;;;;4.70;97.00;;;;;;5053371;28;20373;-65
2022/11/20 07:22:59;;;;;;;;;;;4.80;96.80;;;;;;5054356;28;19920;-63
2022/11/20 07:25:25;;;;;;;;;;;4.80;96.90;;;;;;5065645;28;19936;-62
2022/11/20 07:27:51;;;;;;;;;;;4.80;97.10;;;;;;5072809;28;19920;-62
2022/11/20 07:30:17;;;;;;;;;;;4.90;97.20;;;;;;5065461;28;19913;-61
2022/11/20 07:32:45;;;;;;;;;;;4.80;97.50;;;;;;5072495;28;19919;-62
2022/11/20 07:35:11;;;;;;;;;;;4.90;97.60;;;;;;5068310;28;19928;-62
2022/11/20 07:37:36;;;;;;;;;;;5.10;97.50;;;;;;5072812;28;19913;-62
2022/11/20 07:40:04;;;;;;;;;;;5.20;97.30;;;;;;5059055;28;20459;-62
2022/11/20 07:42:30;;;;;;;;;;;5.40;97.30;;;;;;5072880;28;19916;-61
2022/11/20 07:44:55;;;;;;;;;;;5.50;97.10;;;;;;5062882;28;19958;-60
2022/11/20 07:47:21;;;;;;;;;;;5.70;97.00;;;;;;5070773;28;19986;-61
2022/11/20 07:49:46;;;;;;;;;;;5.80;96.80;;;;;;5072417;28;20388;-62
2022/11/20 07:52:12;;;;;;;;;;;5.90;96.90;;;;;;5064155;28;19971;-60
2022/11/20 07:54:37;;;;;;;;;;;6.00;96.90;;;;;;5050956;28;19967;-61
2022/11/20 07:57:03;;;;;;;;;;;6.10;97.00;;;;;;5052256;28;19966;-63
2022/11/20 07:59:28;;;;;;;;;;;6.20;97.00;;;;;;5061542;28;19931;-63
2022/11/20 08:01:54;;;;;;;;;;;6.20;96.90;;;;;;5052624;28;20320;-61
2022/11/20 08:04:20;;;;;;;;;;;6.30;96.70;;;;;;5062804;28;19913;-63
2022/11/20 08:06:45;;;;;;;;;;;6.30;96.70;;;;;;5049414;28;19934;-63
2022/11/20 08:09:11;;;;;;;;;;;6.40;96.60;;;;;;5051369;28;19924;-63
2022/11/20 08:14:20;;;;;;;;;;;6.50;96.70;;;;;;5050620;28;19920;-64
2022/11/20 08:16:47;;;;;;;;;;;6.60;96.40;;;;;;5051302;28;19913;-63
2022/11/20 08:19:14;;;;;;;;;;;6.70;96.60;;;;;;5051328;28;20085;-64
2022/11/20 08:21:40;;;;;;;;;;;6.70;97.00;;;;;;5051704;28;19916;-64
2022/11/20 08:24:06;;;;;;;;;;;6.80;96.80;;;;;;5052370;28;19999;-64
2022/11/20 08:26:32;;;;;;;;;;;6.90;96.60;;;;;;5051087;28;19916;-63
2022/11/20 08:28:58;;;;;;;;;;;7.00;96.20;;;;;;5046032;28;19920;-64
2022/11/20 08:31:24;;;;;;;;;;;7.00;96.10;;;;;;5050822;28;19948;-63
2022/11/20 08:33:50;;;;;;;;;;;7.10;95.60;;;;;;5052789;28;19934;-63
2022/11/20 08:36:16;;;;;;;;;;;7.10;95.80;;;;;;5051983;28;20361;-62
2022/11/20 08:38:41;;;;;;;;;;;7.20;95.40;;;;;;5050976;28;19994;-61
2022/11/20 08:41:26;;;;;;;;;;;7.20;95.40;;;;;;5051250;28;19997;-63
2022/11/20 08:44:04;;;;;;;;;;;7.30;95.70;;;;;;5050970;28;19923;-62
2022/11/20 08:46:35;;;;;;;;;;;7.30;95.20;;;;;;5049015;28;20466;-63
2022/11/20 08:49:00;;;;;;;;;;;7.40;94.30;;;;;;5049598;28;19913;-63
2022/11/20 08:51:26;;;;;;;;;;;7.40;93.80;;;;;;5052611;28;20270;-63
2022/11/20 08:53:51;;;;;;;;;;;7.40;93.80;;;;;;5051271;28;19921;-62
2022/11/20 08:56:17;;;;;;;;;;;7.50;94.00;;;;;;5049859;28;19912;-60
2022/11/20 08:58:43;;;;;;;;;;;7.50;94.00;;;;;;5049383;28;19917;-61
2022/11/20 09:01:09;;;;;;;;;;;7.50;93.70;;;;;;5049671;28;19920;-63
2022/11/20 09:03:34;;;;;;;;;;;7.50;93.90;;;;;;5050040;28;20423;-62
2022/11/20 09:06:00;;;;;;;;;;;7.60;93.40;;;;;;5051320;28;19913;-62
2022/11/20 09:08:27;;;;;;;;;;;7.60;94.10;;;;;;5047166;28;19955;-62
2022/11/20 09:10:53;;;;;;;;;;;7.70;94.20;;;;;;5056698;28;19917;-63
2022/11/20 09:13:19;;;;;;;;;;;7.80;93.00;;;;;;5055677;28;19909;-63
2022/11/20 09:15:45;;;;;;;;;;;7.80;93.30;;;;;;5055725;28;19935;-65
2022/11/20 09:18:10;;;;;;;;;;;7.90;93.50;;;;;;5054054;28;19916;-63
2022/11/20 09:20:36;;;;;;;;;;;8.00;93.00;;;;;;5055609;28;19909;-64
2022/11/20 09:23:02;;;;;;;;;;;8.00;92.00;;;;;;5055038;28;19917;-64
2022/11/20 09:25:27;;;;;;;;;;;8.00;92.20;;;;;;5055204;28;19909;-64
2022/11/20 09:27:59;;;;;;;;;;;8.10;92.30;;;;;;5055432;28;19996;-64
2022/11/20 09:30:25;;;;;;;;;;;8.10;91.50;;;;;;5055345;28;19909;-63
2022/11/20 09:32:51;;;;;;;;;;;8.20;91.90;;;;;;5055387;28;19932;-64
2022/11/20 09:35:17;;;;;;;;;;;8.30;92.00;;;;;;5055156;28;19951;-63
2022/11/20 09:37:43;;;;;;;;;;;8.30;91.40;;;;;;5054706;28;20324;-64
2022/11/20 09:40:18;;;;;;;;;;;8.30;92.10;;;;;;5054368;28;19912;-64
2022/11/20 09:42:44;;;;;;;;;;;8.40;91.70;;;;;;5053573;28;20396;-64
2022/11/20 09:45:22;;;;;;;;;;;8.40;91.40;;;;;;5054035;28;19913;-64
2022/11/20 09:48:00;;;;;;;;;;;8.40;91.70;;;;;;5054370;28;19909;-64
2022/11/20 09:50:47;;;;;;;;;;;8.50;91.70;;;;;;5054784;28;19909;-64
2022/11/20 09:53:30;;;;;;;;;;;8.60;91.70;;;;;;5055161;28;19996;-64
2022/11/20 09:55:56;;;;;;;;;;;8.70;91.80;;;;;;5054809;28;19916;-64
2022/11/20 09:58:22;;;;;;;;;;;8.70;91.70;;;;;;5054631;28;19917;-64
2022/11/20 10:00:47;;;;;;;;;;;8.80;91.80;;;;;;5054779;28;20293;-64
2022/11/20 10:03:16;;;;;;;;;;;9.00;91.20;;;;;;5053543;28;19916;-64
2022/11/20 10:05:47;;;;;;;;;;;9.10;90.60;;;;;;5054785;28;19920;-64
2022/11/20 10:08:18;;;;;;;;;;;9.20;89.40;;;;;;5054439;28;19957;-64
2022/11/20 10:10:46;;;;;;;;;;;9.20;88.80;;;;;;5054686;28;19991;-64
2022/11/20 10:13:30;;;;;;;;;;;9.20;88.80;;;;;;5054519;28;20103;-63
2022/11/20 10:16:14;;;;;;;;;;;9.30;89.40;;;;;;5054553;28;19916;-64
2022/11/20 10:18:42;;;;;;;;;;;9.30;89.40;;;;;;5054170;28;19921;-64
2022/11/20 10:21:26;;;;;;;;;;;9.40;89.00;;;;;;5054087;28;19909;-64
2022/11/20 10:24:03;;;;;;;;;;;9.60;88.50;;;;;;5053137;28;19909;-64
2022/11/20 10:26:32;;;;;;;;;;;9.60;87.90;;;;;;5054212;28;19908;-64
2022/11/20 10:28:57;;;;;;;;;;;9.70;88.40;;;;;;5053999;28;19955;-64
2022/11/20 10:31:35;;;;;;;;;;;9.80;87.90;;;;;;5054204;28;19913;-64
2022/11/20 10:34:05;;;;;;;;;;;9.90;86.10;;;;;;5054220;28;19959;-65
2022/11/20 10:36:36;;;;;;;;;;;10.00;84.60;;;;;;5053941;28;19970;-64
2022/11/20 10:39:05;;;;;;;;;;;10.10;85.70;;;;;;5053836;28;19965;-64
2022/11/20 10:41:34;;;;;;;;;;;10.20;86.00;;;;;;5053906;28;19970;-64
2022/11/20 10:44:00;;;;;;;;;;;10.30;82.20;;;;;;5053914;28;20336;-64
2022/11/20 10:46:28;;;;;;;;;;;10.40;83.50;;;;;;5053982;28;20003;-64
2022/11/20 10:48:54;;;;;;;;;;;10.40;84.70;;;;;;5052473;28;19909;-64
2022/11/20 10:51:34;;;;;;;;;;;10.50;83.00;;;;;;5053868;28;19909;-64
2022/11/20 10:54:00;;;;;;;;;;;10.60;83.50;;;;;;5054097;28;20350;-64
2022/11/20 10:56:25;;;;;;;;;;;10.80;80.80;;;;;;5053772;28;19919;-64
2022/11/20 10:59:00;;;;;;;;;;;10.80;81.20;;;;;;5053422;28;19920;-64
2022/11/20 11:01:26;;;;;;;;;;;10.80;80.90;;;;;;5052283;28;19909;-64
2022/11/20 11:03:53;;;;;;;;;;;10.90;81.40;;;;;;5053573;28;19913;-64
2022/11/20 11:06:21;;;;;;;;;;;10.90;80.90;;;;;;5053364;28;19916;-64
2022/11/20 11:08:47;;;;;;;;;;;11.00;78.60;;;;;;5053256;28;19909;-65
2022/11/20 11:11:19;;;;;;;;;;;11.00;80.60;;;;;;5052144;28;20027;-64
2022/11/20 11:13:44;;;;;;;;;;;11.10;77.90;;;;;;5053587;28;19909;-64
2022/11/20 11:16:20;;;;;;;;;;;11.20;76.20;;;;;;5053458;28;20584;-64
2022/11/20 11:18:46;;;;;;;;;;;11.10;76.20;;;;;;5053056;28;19917;-64
2022/11/20 11:21:11;;;;;;;;;;;11.10;76.80;;;;;;5053234;28;19913;-66
2022/11/20 11:23:41;;;;;;;;;;;11.10;77.10;;;;;;5051928;28;20007;-67
2022/11/20 11:26:17;;;;;;;;;;;11.20;78.10;;;;;;5051847;28;19991;-66
2022/11/20 11:28:52;;;;;;;;;;;11.30;78.10;;;;;;5051828;28;19913;-66
2022/11/20 11:31:23;;;;;;;;;;;11.40;78.00;;;;;;5053140;28;19997;-66
2022/11/20 11:33:49;;;;;;;;;;;11.50;78.30;;;;;;5053002;28;20381;-66
2022/11/20 11:36:17;;;;;;;;;;;11.60;78.40;;;;;;5052707;28;19958;-65
2022/11/20 11:38:43;;;;;;;;;;;11.80;76.90;;;;;;5052720;28;19913;-66
2022/11/20 11:41:12;;;;;;;;;;;11.80;77.00;;;;;;5051698;28;20381;-65
2022/11/20 11:46:32;;;;;;;;;;;11.90;77.50;;;;;;5052837;28;19932;-66
2022/11/20 11:48:59;;;;;;;;;;;12.00;77.70;;;;;;5052610;28;20327;-66
2022/11/20 11:51:30;;;;;;;;;;;12.10;78.30;;;;;;5052778;28;19954;-65
2022/11/20 11:53:58;;;;;;;;;;;12.30;76.70;;;;;;5052590;28;19909;-66
2022/11/20 11:56:23;;;;;;;;;;;12.40;74.30;;;;;;5052471;28;20430;-65
2022/11/20 11:58:55;;;;;;;;;;;12.30;72.90;;;;;;5053111;28;19916;-66
2022/11/20 12:01:26;;;;;;;;;;;12.40;72.50;;;;;;5052609;28;19992;-66
2022/11/20 12:03:58;;;;;;;;;;;12.40;72.80;;;;;;5052394;28;20273;-66
2022/11/20 12:06:25;;;;;;;;;;;12.70;74.20;;;;;;5051642;28;19955;-66
2022/11/20 12:08:57;;;;;;;;;;;13.00;71.30;;;;;;5051101;28;19917;-66
2022/11/20 12:11:28;;;;;;;;;;;13.40;71.10;;;;;;5052868;28;19923;-65
2022/11/20 12:13:58;;;;;;;;;;;13.60;68.80;;;;;;5052383;28;19913;-65
2022/11/20 12:16:24;;;;;;;;;;;14.40;65.50;;;;;;5060646;28;20292;-66
2022/11/20 12:18:50;;;;;;;;;;;15.30;61.80;;;;;;5071266;28;19913;-65
2022/11/20 12:21:34;;;;;;;;;;;16.00;62.50;;;;;;5060892;28;19919;-66
2022/11/20 12:24:06;;;;;;;;;;;16.00;60.00;;;;;;5072510;28;19908;-66
2022/11/20 12:26:41;;;;;;;;;;;15.90;61.50;;;;;;5060386;28;20562;-65
2022/11/20 12:29:29;;;;;;;;;;;16.30;60.10;;;;;;5053165;28;19913;-64
2022/11/20 12:32:04;;;;;;;;;;;16.60;55.80;;;;;;5048920;28;20466;-65
2022/11/20 12:34:30;;;;;;;;;;;17.70;56.00;;;;;;5050935;28;19909;-63
2022/11/20 12:37:14;;;;;;;;;;;17.60;54.50;;;;;;5063879;28;20289;-64
2022/11/20 12:39:41;;;;;;;;;;;16.80;56.10;;;;;;5070554;28;19925;-64
2022/11/20 12:45:10;;;;;;;;;;;;;;;;;;5057511;28;19920;-63
2022/11/20 12:47:36;;;;;;;;;;;;;;;;;;5058482;28;20007;-63
2022/11/20 12:50:02;;;;;;;;;;;;;;;;;;5055288;28;19935;-63
2022/11/20 12:52:37;;;;;;;;;;;15.40;58.80;;;;;;5058222;28;19919;-62
2022/11/20 12:55:13;;;;;;;;;;;19.60;50.20;;;;;;5058483;28;19953;-62
2022/11/20 12:57:44;;;;;;;;;;;21.10;47.90;;;;;;5057111;28;20025;-61
2022/11/20 13:00:14;;;;;;;;;;;21.50;43.10;;;;;;5067751;28;20006;-61
2022/11/20 13:02:39;;;;;;;;;;;19.90;47.00;;;;;;5059679;28;19968;-63
2022/11/20 13:05:05;;;;;;;;;;;18.60;50.40;;;;;;5078291;28;19932;-63
2022/11/20 13:07:30;;;;;;;;;;;;;;;;;;5072420;28;20329;-62
2022/11/20 13:09:57;;;;;;;;;;;;;;;;;;5063848;28;19965;-63
2022/11/20 13:12:22;;;;;;;;;;;17.60;53.10;;;;;;5075391;28;19912;-60
2022/11/20 13:14:49;;;;;;;;;;;;;;;;;;5078604;28;19912;-63
2022/11/20 13:17:15;;;;;;;;;;;;;;;;;;5078377;28;20379;-63
2022/11/20 13:19:41;;;;;;;;;;;;;;;;;;5077244;28;19909;-63
2022/11/20 13:22:07;;;;;;;;;;;;;;;;;;5059400;28;19978;-63
2022/11/20 13:24:32;;;;;;;;;;;17.40;53.90;;;;;;5059607;28;20333;-63
2022/11/20 13:26:58;;;;;;;;;;;;;;;;;;5059321;28;20423;-63
2022/11/20 13:29:24;;;;;;;;;;;;;;;;;;5058325;28;19920;-63
2022/11/20 13:31:50;;;;;;;;;;;;;;;;;;5076147;28;20381;-63
2022/11/20 13:34:16;;;;;;;;;;;;;;;;;;5078134;28;19917;-63
2022/11/20 13:36:42;;;;;;;;;;;;;;;;;;5078054;28;19912;-64
2022/11/20 13:39:08;;;;;;;;;;;;;;;;;;5062811;28;19958;-64
2022/11/20 13:41:35;;;;;;;;;;;17.80;55.30;;;;;;5076195;28;19912;-63
2022/11/20 13:44:14;;;;;;;;;;;17.70;55.70;;;;;;5067417;28;19913;-64
2022/11/20 13:46:41;;;;;;;;;;;;;;;;;;5059087;28;20332;-63
2022/11/20 13:49:08;;;;;;;;;;;;;;;;;;5071837;28;19917;-64
2022/11/20 13:51:34;;;;;;;;;;;;;;;;;;5072219;28;20007;-63
2022/11/20 13:53:59;;;;;;;;;;;;;;;;;;5074247;28;19962;-63
2022/11/20 13:56:25;;;;;;;;;;;;;;;;;;5074641;28;19919;-63
2022/11/20 13:58:51;;;;;;;;;;;;;;;;;;5074566;28;19920;-62
2022/11/20 14:01:18;;;;;;;;;;;;;;;;;;5066759;28;19916;-62
2022/11/20 14:03:44;;;;;;;;;;;;;;;;;;5062958;28;20015;-63
2022/11/20 14:06:09;;;;;;;;;;;;;;;;;;5072008;28;20341;-63
2022/11/20 14:08:35;;;;;;;;;;;;;;;;;;5053261;28;19916;-63
2022/11/20 14:11:01;;;;;;;;;;;;;;;;;;5058689;28;20007;-63
2022/11/20 14:13:27;;;;;;;;;;;;;;;;;;5067295;28;19919;-63
2022/11/20 14:15:53;;;;;;;;;;;;;;;;;;5054362;28;19956;-63
2022/11/20 14:18:19;;;;;;;;;;;;;;;;;;5054302;28;19938;-63
2022/11/20 14:20:45;;;;;;;;;;;;;;;;;;5057501;28;20296;-63
2022/11/20 14:23:11;;;;;;;;;;;;;;;;;;5064351;28;19913;-62
2022/11/20 14:25:37;;;;;;;;;;;;;;;;;;5053986;28;19952;-61
2022/11/20 14:28:03;;;;;;;;;;;;;;;;;;5054168;28;20416;-61
2022/11/20 14:30:29;;;;;;;;;;;;;;;;;;5054572;28;19909;-61
2022/11/20 14:32:55;;;;;;;;;;;;;;;;;;5066492;28;19913;-61
2022/11/20 14:35:21;;;;;;;;;;;;;;;;;;5062898;28;19912;-61
2022/11/20 14:37:46;;;;;;;;;;;;;;;;;;5060662;28;19982;-62
2022/11/20 14:40:12;;;;;;;;;;;;;;;;;;5053884;28;19986;-61
2022/11/20 14:42:38;;;;;;;;;;;;;;;;;;5071931;28;19913;-61
2022/11/20 14:45:04;;;;;;;;;;;;;;;;;;5073886;28;19962;-62
2022/11/20 14:47:30;;;;;;;;;;;;;;;;;;5073467;28;20343;-61
2022/11/20 14:49:56;;;;;;;;;;;;;;;;;;5073847;28;20301;-61
2022/11/20 14:52:23;;;;;;;;;;;16.90;57.60;;;;;;5056723;28;20396;-64